Time;durP1;ratioP1;P1;durP2;ratioP2;P2;SDS_P1;SDS_P2;PMS_P1;PMS_P2;Temp;Humidity;BMP_temperature;BMP_pressure;BME280_temperature;BME280_humidity;BME280_pressure;Samples;Min_cycle;Max_cycle;Signal;HPM_P1;HPM_P2
2022/02/04 00:05:59;;;;;;;3.37;0.65;;;;;;;;;;4375754;32;20434;-91
2022/02/04 00:22:40;;;;;;;5.97;0.65;;;;;;;;;;4377846;32;20102;-91
2022/02/04 00:25:26;;;;;;;3.10;0.52;;;;;;;;;;4366075;32;20350;-91
2022/02/04 00:27:59;;;;;;;3.58;0.70;;;;;;;;;;4377717;32;20059;-91
2022/02/04 00:30:35;;;;;;;2.72;0.62;;;;;;;;;;4376252;32;20433;-92
2022/02/04 00:33:05;;;;;;;3.05;0.52;;;;;;;;;;4362557;32;20040;-90
2022/02/04 00:35:51;;;;;;;3.78;0.62;;;;;;;;;;4363716;32;20106;-91
2022/02/04 00:38:30;;;;;;;4.60;0.80;;;;;;;;;;4350279;32;20154;-92
2022/02/04 00:41:06;;;;;;;2.17;0.50;;;;;;;;;;4338344;32;20102;-90
2022/02/04 00:43:35;;;;;;;2.08;0.65;;;;;;;;;;4362895;32;20062;-91
2022/02/04 00:46:20;;;;;;;2.20;0.60;;;;;;;;;;4350298;32;20035;-90
2022/02/04 00:49:19;;;;;;;2.15;0.50;;;;;;;;;;4364197;32;20065;-89
2022/02/04 00:52:08;;;;;;;1.92;0.40;;;;;;;;;;4363050;32;20043;-90
2022/02/04 00:54:46;;;;;;;2.78;0.75;;;;;;;;;;4362880;32;20043;-90
2022/02/04 00:57:32;;;;;;;3.12;0.70;;;;;;;;;;4364222;32;20039;-90
2022/02/04 01:27:46;;;;;;;2.47;0.55;;;;;;;;;;4338844;33;20055;-91
2022/02/04 01:30:18;;;;;;;2.53;0.60;;;;;;;;;;4363689;33;20081;-91
2022/02/04 01:32:47;;;;;;;1.15;0.30;;;;;;;;;;4364159;33;20025;-90
2022/02/04 01:35:15;;;;;;;2.08;0.50;;;;;;;;;;4362266;33;20047;-91
2022/02/04 01:37:44;;;;;;;3.05;0.55;;;;;;;;;;4349169;33;20047;-90
2022/02/04 01:40:13;;;;;;;1.12;0.43;;;;;;;;;;4363365;33;20058;-90
2022/02/04 01:42:42;;;;;;;1.20;0.50;;;;;;;;;;4338985;32;20057;-91
2022/02/04 01:45:11;;;;;;;1.27;0.47;;;;;;;;;;4349814;33;20039;-91
2022/02/04 01:47:41;;;;;;;1.55;0.40;;;;;;;;;;4362718;33;20083;-91
2022/02/04 01:50:10;;;;;;;2.75;0.50;;;;;;;;;;4362119;33;20039;-91
2022/02/04 01:52:39;;;;;;;1.55;0.50;;;;;;;;;;4362204;33;20103;-91
2022/02/04 01:55:08;;;;;;;4.78;0.55;;;;;;;;;;4337344;33;20491;-91
2022/02/04 01:57:38;;;;;;;1.05;0.30;;;;;;;;;;4351588;33;20180;-91
2022/02/04 02:00:07;;;;;;;2.37;0.50;;;;;;;;;;4362157;33;20119;-91
2022/02/04 02:02:35;;;;;;;3.50;0.70;;;;;;;;;;4372973;32;20043;-91
2022/02/04 02:05:05;;;;;;;1.77;0.60;;;;;;;;;;4364570;32;20118;-90
2022/02/04 02:07:41;;;;;;;1.33;0.45;;;;;;;;;;4352774;32;20093;-91
2022/02/04 02:10:15;;;;;;;2.08;0.37;;;;;;;;;;4364590;32;20035;-91
2022/02/04 02:15:29;;;;;;;2.62;0.57;;;;;;;;;;4364580;32;20341;-91
2022/02/04 02:35:10;;;;;;;1.10;0.50;;;;;;;;;;4378346;32;20028;-90
2022/02/04 02:45:35;;;;;;;3.00;0.50;;;;;;;;;;4364792;32;20063;-90
2022/02/04 02:48:31;;;;;;;1.85;0.30;;;;;;;;;;4375735;32;20063;-90
2022/02/04 02:57:41;;;;;;;1.12;0.50;;;;;;;;;;4377316;32;20023;-90
2022/02/04 02:59:22;;;;;;;0.60;0.40;;;;;;;;;;4370915;32;20098;-90
2022/02/04 03:01:52;;;;;;;1.37;0.40;;;;;;;;;;4376470;32;20085;-90
2022/02/04 03:04:20;;;;;;;1.58;0.40;;;;;;;;;;4351001;32;20097;-90
2022/02/04 03:06:49;;;;;;;1.75;0.57;;;;;;;;;;4365443;32;20133;-90
2022/02/04 03:09:18;;;;;;;3.55;0.77;;;;;;;;;;4363797;32;20038;-90
2022/02/04 03:11:47;;;;;;;1.45;0.45;;;;;;;;;;4359038;32;20103;-90
2022/02/04 03:14:15;;;;;;;1.02;0.40;;;;;;;;;;4362178;32;20050;-91
2022/02/04 03:16:45;;;;;;;2.58;0.40;;;;;;;;;;4360274;32;20431;-90
2022/02/04 03:19:14;;;;;;;1.58;0.50;;;;;;;;;;4360592;33;20069;-91
2022/02/04 03:21:46;;;;;;;1.17;0.47;;;;;;;;;;4373022;32;20423;-91
2022/02/04 03:24:19;;;;;;;1.17;0.50;;;;;;;;;;4362607;32;20061;-91
2022/02/04 03:29:24;;;;;;;2.67;0.43;;;;;;;;;;4361188;32;20398;-91
2022/02/04 03:31:58;;;;;;;2.10;0.55;;;;;;;;;;4349061;33;20045;-91
2022/02/04 03:34:28;;;;;;;2.12;0.40;;;;;;;;;;4348138;33;20039;-90
2022/02/04 03:36:57;;;;;;;2.20;0.50;;;;;;;;;;4362267;32;20039;-91
2022/02/04 03:39:25;;;;;;;2.80;0.55;;;;;;;;;;4372964;32;20099;-91
2022/02/04 03:41:54;;;;;;;1.73;0.60;;;;;;;;;;4363016;33;20019;-91
2022/02/04 03:44:23;;;;;;;2.20;0.45;;;;;;;;;;4361016;33;20111;-91
2022/02/04 03:46:51;;;;;;;1.67;0.60;;;;;;;;;;4347991;33;20058;-91
2022/02/04 03:49:20;;;;;;;3.55;0.50;;;;;;;;;;4336463;33;20121;-91
2022/02/04 03:51:49;;;;;;;1.55;0.68;;;;;;;;;;4360985;33;20418;-90
2022/02/04 03:54:17;;;;;;;2.62;0.80;;;;;;;;;;4361039;33;20107;-91
2022/02/04 03:56:47;;;;;;;2.80;0.57;;;;;;;;;;4362212;32;20036;-91
2022/02/04 03:59:15;;;;;;;1.10;0.45;;;;;;;;;;4359896;33;20056;-91
2022/02/04 04:01:44;;;;;;;2.33;0.75;;;;;;;;;;4361321;32;20024;-90
2022/02/04 04:04:13;;;;;;;1.23;0.50;;;;;;;;;;4347847;33;20458;-92
2022/02/04 04:06:42;;;;;;;3.25;0.80;;;;;;;;;;4347514;33;20040;-91
2022/02/04 04:09:10;;;;;;;4.12;0.70;;;;;;;;;;4359097;33;20082;-91
2022/02/04 04:11:45;;;;;;;1.90;0.77;;;;;;;;;;4359219;33;20145;-91
2022/02/04 04:14:14;;;;;;;;;;;;;;;;;;4360344;33;20483;-91
2022/02/04 04:16:44;;;;;;;3.10;0.60;;;;;;;;;;4347880;33;19943;-91
2022/02/04 04:19:13;;;;;;;3.67;0.77;;;;;;;;;;4347981;33;20056;-91
2022/02/04 04:21:41;;;;;;;2.67;0.65;;;;;;;;;;4361368;33;20421;-91
2022/02/04 04:24:11;;;;;;;2.85;0.68;;;;;;;;;;4361379;32;20129;-90
2022/02/04 04:26:40;;;;;;;2.62;1.00;;;;;;;;;;4360243;33;20371;-91
2022/02/04 04:29:10;;;;;;;3.10;0.60;;;;;;;;;;4360378;33;20105;-91
2022/02/04 04:31:39;;;;;;;4.68;0.80;;;;;;;;;;4360816;33;20398;-91
2022/02/04 04:34:08;;;;;;;1.80;0.80;;;;;;;;;;4360524;33;20082;-91
2022/02/04 04:36:38;;;;;;;4.05;0.80;;;;;;;;;;4362094;33;20024;-92
2022/02/04 04:39:15;;;;;;;4.30;0.70;;;;;;;;;;4373394;32;20063;-92
2022/02/04 04:42:08;;;;;;;3.92;0.80;;;;;;;;;;4352448;32;20182;-91
2022/02/04 04:45:17;;;;;;;4.43;0.80;;;;;;;;;;4354520;32;20422;-92
2022/02/04 05:29:45;;;;;;;8.13;1.37;;;;;;;;;;4383307;32;20369;-91
2022/02/04 05:38:20;;;;;;;9.60;1.45;;;;;;;;;;4381165;32;20381;-91
2022/02/04 05:40:51;;;;;;;9.75;1.65;;;;;;;;;;4367588;32;20053;-91
2022/02/04 05:43:25;;;;;;;8.00;1.65;;;;;;;;;;4356676;32;20484;-91
2022/02/04 05:46:10;;;;;;;4.72;1.40;;;;;;;;;;4331968;32;20450;-91
2022/02/04 05:48:44;;;;;;;7.55;1.17;;;;;;;;;;4354962;32;20034;-91
2022/02/04 05:54:13;;;;;;;7.43;1.45;;;;;;;;;;4378720;32;20541;-91
2022/02/04 05:56:56;;;;;;;9.10;1.60;;;;;;;;;;4379358;32;20093;-90
2022/02/04 05:59:47;;;;;;;6.18;1.40;;;;;;;;;;4379323;32;20077;-91
2022/02/04 06:05:18;;;;;;;10.13;1.55;;;;;;;;;;4352057;33;20106;-91
2022/02/04 06:08:18;;;;;;;5.82;1.60;;;;;;;;;;4361861;32;20023;-91
2022/02/04 06:14:08;;;;;;;9.18;1.50;;;;;;;;;;4378149;32;20374;-91
2022/02/04 06:22:34;;;;;;;5.43;0.98;;;;;;;;;;4365940;32;20059;-91
2022/02/04 06:24:57;;;;;;;7.32;1.60;;;;;;;;;;4353598;32;20078;-91
2022/02/04 06:27:27;;;;;;;6.93;1.30;;;;;;;;;;4343747;32;20051;-90
2022/02/04 06:29:56;;;;;;;8.55;1.50;;;;;;;;;;4354361;32;20089;-91
2022/02/04 06:32:25;;;;;;;5.20;1.27;;;;;;;;;;4366380;32;20035;-91
2022/02/04 06:34:54;;;;;;;5.28;1.20;;;;;;;;;;4365795;32;20081;-90
2022/02/04 06:37:22;;;;;;;7.05;1.30;;;;;;;;;;4379278;32;20039;-92
2022/02/04 06:39:51;;;;;;;6.60;1.33;;;;;;;;;;4365007;32;20077;-91
2022/02/04 06:42:24;;;;;;;6.50;1.40;;;;;;;;;;4379400;32;20035;-90
2022/02/04 06:44:58;;;;;;;6.57;1.30;;;;;;;;;;4365222;32;20066;-91
2022/02/04 06:47:28;;;;;;;6.62;1.20;;;;;;;;;;4365981;32;20419;-90
2022/02/04 06:49:56;;;;;;;4.20;0.95;;;;;;;;;;4364216;32;20047;-91
2022/02/04 06:52:25;;;;;;;5.85;1.02;;;;;;;;;;4340384;32;20070;-91
2022/02/04 06:54:54;;;;;;;4.72;0.80;;;;;;;;;;4378606;32;20035;-91
2022/02/04 06:57:23;;;;;;;6.72;1.05;;;;;;;;;;4367239;32;20055;-91
2022/02/04 06:59:53;;;;;;;8.40;1.20;;;;;;;;;;4355909;32;20079;-91
2022/02/04 07:02:26;;;;;;;3.83;1.20;;;;;;;;;;4354579;32;20053;-91
2022/02/04 07:04:56;;;;;;;4.50;1.03;;;;;;;;;;4345342;32;20103;-91
2022/02/04 07:07:28;;;;;;;3.45;0.80;;;;;;;;;;4367445;32;20080;-91
2022/02/04 07:10:05;;;;;;;6.35;1.05;;;;;;;;;;4366458;32;20035;-92
2022/02/04 07:12:36;;;;;;;4.00;1.10;;;;;;;;;;4376840;32;20036;-91
2022/02/04 07:18:03;;;;;;;2.55;0.90;;;;;;;;;;4378207;32;20065;-90
2022/02/04 07:20:32;;;;;;;5.12;1.30;;;;;;;;;;4366410;32;20093;-91
2022/02/04 07:23:01;;;;;;;3.97;0.98;;;;;;;;;;4365167;32;20087;-90
2022/02/04 07:25:30;;;;;;;3.12;0.85;;;;;;;;;;4376967;32;20039;-90
2022/02/04 07:27:58;;;;;;;3.03;0.90;;;;;;;;;;4377944;32;20067;-89
2022/02/04 07:30:42;;;;;;;4.15;1.10;;;;;;;;;;4364710;32;20154;-90
2022/02/04 07:41:04;;;;;;;4.50;1.08;;;;;;;;;;4378294;32;20097;-91
2022/02/04 07:43:33;;;;;;;3.83;0.80;;;;;;;;;;4375008;32;20050;-89
2022/02/04 07:46:02;;;;;;;3.17;0.77;;;;;;;;;;4362109;32;20047;-89
2022/02/04 07:48:31;;;;;;;7.22;1.05;;;;;;;;;;4378958;32;20044;-89
2022/02/04 07:50:59;;;;;;;5.07;1.08;;;;;;;;;;4363784;32;20070;-89
2022/02/04 07:53:34;;;;;;;3.80;0.88;;;;;;;;;;4364040;32;20398;-89
2022/02/04 07:56:03;;;;;;;;;;;;;;;;;;4381023;32;20043;-89
2022/02/04 07:58:33;;;;;;;5.43;1.20;;;;;;;;;;4365384;32;19930;-89
2022/02/04 08:01:03;;;;;;;5.35;1.20;;;;;;;;;;4363289;32;20083;-89
2022/02/04 08:03:40;;;;;;;5.37;1.15;;;;;;;;;;4364346;32;20066;-89
2022/02/04 08:06:14;;;;;;;5.53;1.25;;;;;;;;;;4363681;32;20051;-89
2022/02/04 08:09:00;;;;;;;4.70;1.12;;;;;;;;;;4377381;32;20032;-90
2022/02/04 08:14:48;;;;;;;;;;;;;;;;;;4368113;32;19927;-92
2022/02/04 08:20:39;;;;;;;7.87;1.00;;;;;;;;;;4364669;32;20423;-93
2022/02/04 08:23:48;;;;;;;8.88;1.50;;;;;;;;;;4353136;32;20062;-94
2022/02/04 08:26:48;;;;;;;5.00;1.02;;;;;;;;;;4364508;32;20059;-93
2022/02/04 08:29:39;;;;;;;10.65;1.45;;;;;;;;;;4375418;32;20062;-93
2022/02/04 08:35:04;;;;;;;10.20;1.52;;;;;;;;;;4364798;32;20035;-93
2022/02/04 08:52:12;;;;;;;8.77;1.95;;;;;;;;;;4377350;32;20372;-92
2022/02/04 08:55:00;;;;;;;12.93;2.10;;;;;;;;;;4369514;32;20075;-93
2022/02/04 08:57:40;;;;;;;9.85;1.90;;;;;;;;;;4366026;32;20039;-94
2022/02/04 09:00:25;;;;;;;5.97;1.65;;;;;;;;;;4379487;32;20028;-93
2022/02/04 09:03:14;;;;;;;9.95;2.00;;;;;;;;;;4352478;32;20094;-93
2022/02/04 09:05:53;;;;;;;9.60;1.77;;;;;;;;;;4352204;32;20123;-93
2022/02/04 09:08:53;;;;;;;10.65;1.67;;;;;;;;;;4364844;32;20159;-94
2022/02/04 09:11:41;;;;;;;10.43;1.80;;;;;;;;;;4364390;33;20091;-93
2022/02/04 09:20:03;;;;;;;17.25;1.90;;;;;;;;;;4332532;33;20055;-91
2022/02/04 09:25:08;;;;;;;12.68;2.33;;;;;;;;;;4359407;33;20339;-92
2022/02/04 09:27:38;;;;;;;14.57;2.12;;;;;;;;;;4355075;32;20419;-92
2022/02/04 09:30:09;;;;;;;12.95;2.20;;;;;;;;;;4350531;33;20070;-91
2022/02/04 09:32:39;;;;;;;9.52;1.58;;;;;;;;;;4349942;33;20066;-91
2022/02/04 09:35:09;;;;;;;14.18;1.90;;;;;;;;;;4361806;32;20040;-91
2022/02/04 09:37:41;;;;;;;9.55;1.75;;;;;;;;;;4349239;33;20159;-92
2022/02/04 09:40:10;;;;;;;20.00;1.60;;;;;;;;;;4360720;32;20413;-91
2022/02/04 09:42:40;;;;;;;10.02;2.00;;;;;;;;;;4365947;32;20051;-91
2022/02/04 09:45:10;;;;;;;11.52;1.90;;;;;;;;;;4350189;32;20047;-91
2022/02/04 09:47:42;;;;;;;11.88;1.70;;;;;;;;;;4359924;32;20146;-92
2022/02/04 09:50:15;;;;;;;8.10;1.70;;;;;;;;;;4360985;32;20032;-91
2022/02/04 10:04:52;;;;;;;12.85;1.30;;;;;;;;;;4362511;33;20048;-89
2022/02/04 10:07:39;;;;;;;8.83;1.27;;;;;;;;;;4364917;33;20070;-89
2022/02/04 10:18:11;;;;;;;6.12;0.80;;;;;;;;;;4370913;32;20485;-89
2022/02/04 10:20:41;;;;;;;3.90;1.10;;;;;;;;;;4350760;33;20496;-89
2022/02/04 10:23:10;;;;;;;2.67;0.90;;;;;;;;;;4362920;33;20032;-89
2022/02/04 10:25:43;;;;;;;2.95;0.77;;;;;;;;;;4363137;33;20054;-88
2022/02/04 10:28:22;;;;;;;6.37;0.93;;;;;;;;;;4351285;32;20027;-88
2022/02/04 10:31:09;;;;;;;4.32;0.60;;;;;;;;;;4364115;32;20062;-89
2022/02/04 10:33:57;;;;;;;3.95;0.62;;;;;;;;;;4362417;33;20126;-89
2022/02/04 10:36:39;;;;;;;2.33;0.68;;;;;;;;;;4363003;32;20040;-89
2022/02/04 10:39:29;;;;;;;4.57;0.70;;;;;;;;;;4363338;32;20052;-89
2022/02/04 10:42:07;;;;;;;2.08;0.70;;;;;;;;;;4348993;32;20130;-89
2022/02/04 10:44:51;;;;;;;3.33;0.90;;;;;;;;;;4379407;32;20047;-89
2022/02/04 10:47:55;;;;;;;2.47;0.80;;;;;;;;;;4377252;32;20055;-90
2022/02/04 10:59:12;;;;;;;3.53;0.55;;;;;;;;;;4364147;32;20039;-90
2022/02/04 11:10:07;;;;;;;1.52;0.40;;;;;;;;;;4364065;32;20074;-90
2022/02/04 11:35:07;;;;;;;1.00;0.30;;;;;;;;;;4362865;32;20087;-89
2022/02/04 11:43:52;;;;;;;0.22;0.22;;;;;;;;;;4363090;32;20032;-89
2022/02/04 11:55:00;;;;;;;1.00;0.20;;;;;;;;;;4361700;33;20047;-90
2022/02/04 11:57:34;;;;;;;9.68;0.60;;;;;;;;;;4360605;33;20031;-89
2022/02/04 12:00:19;;;;;;;4.15;0.60;;;;;;;;;;4364416;32;20108;-89
2022/02/04 12:02:51;;;;;;;4.00;0.62;;;;;;;;;;4378200;32;20044;-90
2022/02/04 12:05:24;;;;;;;5.53;0.68;;;;;;;;;;4385167;32;20036;-89
2022/02/04 12:08:16;;;;;;;2.22;0.60;;;;;;;;;;4376582;32;20035;-90
2022/02/04 12:10:52;;;;;;;0.93;0.40;;;;;;;;;;4366822;32;20047;-89
2022/02/04 12:13:21;;;;;;;1.95;0.57;;;;;;;;;;4390925;32;20080;-90
2022/02/04 12:16:05;;;;;;;1.02;0.40;;;;;;;;;;4392882;32;20320;-90
2022/02/04 12:18:39;;;;;;;2.45;0.52;;;;;;;;;;4391011;32;20113;-89
2022/02/04 12:21:11;;;;;;;3.42;0.50;;;;;;;;;;4379889;32;20086;-90
2022/02/04 12:23:43;;;;;;;3.47;0.60;;;;;;;;;;4391915;32;20031;-90
2022/02/04 12:26:19;;;;;;;2.33;0.45;;;;;;;;;;4365649;32;20097;-89
2022/02/04 12:28:58;;;;;;;2.25;0.52;;;;;;;;;;4377980;32;20056;-89
2022/02/04 12:31:30;;;;;;;2.35;0.47;;;;;;;;;;4378119;32;20354;-89
2022/02/04 12:34:00;;;;;;;2.87;0.45;;;;;;;;;;4389418;32;20046;-89
2022/02/04 12:36:36;;;;;;;2.22;0.47;;;;;;;;;;4408404;32;20016;-89
2022/02/04 12:39:07;;;;;;;3.03;0.40;;;;;;;;;;4394049;32;20016;-89
2022/02/04 12:41:39;;;;;;;3.12;0.47;;;;;;;;;;4393739;32;20061;-89
2022/02/04 12:44:12;;;;;;;1.23;0.30;;;;;;;;;;4362362;32;20100;-89
2022/02/04 12:46:46;;;;;;;1.20;0.60;;;;;;;;;;4389882;32;20020;-90
2022/02/04 12:49:16;;;;;;;2.60;0.50;;;;;;;;;;4363623;32;20162;-90
2022/02/04 12:52:01;;;;;;;1.67;0.40;;;;;;;;;;4374892;32;20065;-90
2022/02/04 12:54:35;;;;;;;2.90;0.40;;;;;;;;;;4376390;32;20031;-89
2022/02/04 13:11:11;;;;;;;0.82;0.35;;;;;;;;;;4365054;32;20394;-90
2022/02/04 13:13:48;;;;;;;0.80;0.30;;;;;;;;;;4380591;32;20043;-90
2022/02/04 13:16:43;;;;;;;2.58;0.40;;;;;;;;;;4365162;32;20047;-90
2022/02/04 13:19:13;;;;;;;1.45;0.40;;;;;;;;;;4377452;32;20023;-89
2022/02/04 13:21:44;;;;;;;1.87;0.40;;;;;;;;;;4378464;32;20067;-89
2022/02/04 13:24:15;;;;;;;1.77;0.37;;;;;;;;;;4378891;32;20031;-89
2022/02/04 13:26:44;;;;;;;0.95;0.40;;;;;;;;;;4378708;32;20035;-90
2022/02/04 13:29:13;;;;;;;1.40;0.32;;;;;;;;;;4365793;32;20093;-89
2022/02/04 13:31:42;;;;;;;1.52;0.30;;;;;;;;;;4378319;32;20422;-89
2022/02/04 13:34:11;;;;;;;0.75;0.20;;;;;;;;;;4378292;32;20052;-89
2022/02/04 13:36:46;;;;;;;2.10;0.50;;;;;;;;;;4378126;32;20422;-90
2022/02/04 13:42:23;;;;;;;2.65;0.50;;;;;;;;;;4380272;32;20057;-89
2022/02/04 13:53:13;;;;;;;8.88;1.02;;;;;;;;;;4377845;32;20085;-89
2022/02/04 13:55:56;;;;;;;9.25;1.00;;;;;;;;;;4380294;32;20051;-89
2022/02/04 14:03:42;;;;;;;6.12;0.90;;;;;;;;;;4366423;32;20470;-90
2022/02/04 14:06:24;;;;;;;3.83;0.80;;;;;;;;;;4377674;32;20028;-88
2022/02/04 14:11:29;;;;;;;2.97;0.60;;;;;;;;;;4377128;32;20197;-89
2022/02/04 14:14:23;;;;;;;2.78;0.47;;;;;;;;;;4366512;32;20142;-88
2022/02/04 14:16:53;;;;;;;3.95;0.77;;;;;;;;;;4378044;32;20098;-89
2022/02/04 14:19:26;;;;;;;5.57;0.50;;;;;;;;;;4364635;32;20137;-89
2022/02/04 14:21:57;;;;;;;5.45;0.65;;;;;;;;;;4364891;32;20067;-89
2022/02/04 14:24:27;;;;;;;3.97;0.70;;;;;;;;;;4363606;32;20401;-89
2022/02/04 14:26:57;;;;;;;3.17;0.45;;;;;;;;;;4377279;32;20043;-89
2022/02/04 14:29:38;;;;;;;3.65;0.40;;;;;;;;;;4377627;32;20043;-89
2022/02/04 14:32:17;;;;;;;2.25;0.30;;;;;;;;;;4363852;32;20057;-89
2022/02/04 14:54:03;;;;;;;3.10;0.43;;;;;;;;;;4330509;33;20455;-89
2022/02/04 15:01:56;;;;;;;1.60;0.50;;;;;;;;;;4362590;33;20024;-89
2022/02/04 15:04:40;;;;;;;2.22;0.30;;;;;;;;;;4362329;33;20081;-89
2022/02/04 15:07:10;;;;;;;1.62;0.40;;;;;;;;;;4362257;32;20062;-89
2022/02/04 15:09:47;;;;;;;1.87;0.20;;;;;;;;;;4363191;32;20130;-89
2022/02/04 15:12:16;;;;;;;1.75;0.30;;;;;;;;;;4363949;32;20027;-88
2022/02/04 15:14:45;;;;;;;0.95;0.30;;;;;;;;;;4361208;33;20071;-89
2022/02/04 15:17:14;;;;;;;2.00;0.30;;;;;;;;;;4363099;32;20039;-88
2022/02/04 15:19:44;;;;;;;2.83;0.32;;;;;;;;;;4350169;32;20475;-88
2022/02/04 15:22:14;;;;;;;0.88;0.30;;;;;;;;;;4350602;32;20445;-89
2022/02/04 15:24:42;;;;;;;1.95;0.30;;;;;;;;;;4361142;32;20028;-89
2022/02/04 15:27:11;;;;;;;0.35;0.20;;;;;;;;;;4362689;32;20036;-89
2022/02/04 15:29:46;;;;;;;1.83;0.30;;;;;;;;;;4363592;32;20055;-89
2022/02/04 15:32:14;;;;;;;3.40;0.50;;;;;;;;;;4361396;33;20054;-89
2022/02/04 15:34:44;;;;;;;2.72;0.40;;;;;;;;;;4348437;33;20062;-88
2022/02/04 15:37:12;;;;;;;0.82;0.25;;;;;;;;;;4350189;32;20040;-88
2022/02/04 15:39:41;;;;;;;3.53;0.40;;;;;;;;;;4362797;32;20040;-89
2022/02/04 15:42:13;;;;;;;2.15;0.30;;;;;;;;;;4349035;33;20066;-90
2022/02/04 15:44:57;;;;;;;1.67;0.30;;;;;;;;;;4361570;32;20059;-89
2022/02/04 15:47:38;;;;;;;4.60;0.40;;;;;;;;;;4361547;32;20050;-89
2022/02/04 15:59:23;;;;;;;2.10;0.30;;;;;;;;;;4333119;33;20074;-88
2022/02/04 16:02:15;;;;;;;0.88;0.40;;;;;;;;;;4348403;33;20447;-90
2022/02/04 16:04:47;;;;;;;0.50;0.30;;;;;;;;;;4362330;32;20043;-91
2022/02/04 16:07:20;;;;;;;0.35;0.20;;;;;;;;;;4361354;32;20044;-89
2022/02/04 16:12:55;;;;;;;2.22;0.30;;;;;;;;;;4344686;33;20024;-90
2022/02/04 16:15:39;;;;;;;1.08;0.20;;;;;;;;;;4350044;33;20089;-89
2022/02/04 16:18:17;;;;;;;1.80;0.30;;;;;;;;;;4348150;33;20074;-88
2022/02/04 16:21:06;;;;;;;1.15;0.20;;;;;;;;;;4349049;33;20051;-89
2022/02/04 16:28:57;;;;;;;1.37;0.30;;;;;;;;;;4347017;33;20043;-89
2022/02/04 16:31:26;;;;;;;0.93;0.20;;;;;;;;;;4360751;33;20135;-89
2022/02/04 16:33:55;;;;;;;2.03;0.30;;;;;;;;;;4360847;33;20052;-88
2022/02/04 16:36:25;;;;;;;3.00;0.30;;;;;;;;;;4346737;33;20048;-89
2022/02/04 16:38:56;;;;;;;0.47;0.20;;;;;;;;;;4360173;33;20028;-89
2022/02/04 16:41:32;;;;;;;2.25;0.30;;;;;;;;;;4348470;33;20416;-89
2022/02/04 16:44:01;;;;;;;2.03;0.20;;;;;;;;;;4361553;33;20059;-89
2022/02/04 16:46:30;;;;;;;0.52;0.25;;;;;;;;;;4360128;33;20058;-89
2022/02/04 16:48:58;;;;;;;1.35;0.25;;;;;;;;;;4360819;33;20040;-89
2022/02/04 16:51:27;;;;;;;1.73;0.30;;;;;;;;;;4360245;33;20028;-89
2022/02/04 16:53:56;;;;;;;0.68;0.20;;;;;;;;;;4361743;33;20075;-89
2022/02/04 16:56:24;;;;;;;0.52;0.30;;;;;;;;;;4358741;33;20423;-89
2022/02/04 16:58:53;;;;;;;0.73;0.32;;;;;;;;;;4334277;33;20055;-89
2022/02/04 17:01:22;;;;;;;1.15;0.20;;;;;;;;;;4361806;33;20393;-89
2022/02/04 17:03:51;;;;;;;0.28;0.20;;;;;;;;;;4366089;32;20465;-89
2022/02/04 17:06:21;;;;;;;1.08;0.30;;;;;;;;;;4389359;32;20374;-90
2022/02/04 17:08:57;;;;;;;0.75;0.20;;;;;;;;;;4366522;32;20061;-89
2022/02/04 17:11:40;;;;;;;0.95;0.20;;;;;;;;;;4390617;32;20391;-89
2022/02/04 17:14:09;;;;;;;0.77;0.20;;;;;;;;;;4351996;32;20063;-89
2022/02/04 17:16:42;;;;;;;1.27;0.25;;;;;;;;;;4391217;32;20332;-89
2022/02/04 17:19:11;;;;;;;0.37;0.20;;;;;;;;;;4390701;32;20402;-89
2022/02/04 17:21:41;;;;;;;1.17;0.20;;;;;;;;;;4392418;32;20100;-89
2022/02/04 17:24:13;;;;;;;0.35;0.10;;;;;;;;;;4383975;32;20386;-89
2022/02/04 17:26:43;;;;;;;3.50;0.28;;;;;;;;;;4377153;32;20023;-89
2022/02/04 17:29:12;;;;;;;0.62;0.20;;;;;;;;;;4374967;32;20106;-89
2022/02/04 17:31:41;;;;;;;1.08;0.10;;;;;;;;;;4362743;32;20105;-88
2022/02/04 17:34:12;;;;;;;0.65;0.22;;;;;;;;;;4361270;32;20097;-89
2022/02/04 17:36:41;;;;;;;0.20;0.10;;;;;;;;;;4375402;32;20040;-89
2022/02/04 17:39:16;;;;;;;0.68;0.10;;;;;;;;;;4375282;32;20035;-89
2022/02/04 17:41:47;;;;;;;1.65;0.30;;;;;;;;;;4348890;32;20058;-89
2022/02/04 17:44:16;;;;;;;0.95;0.20;;;;;;;;;;4363398;32;20063;-89
2022/02/04 17:46:46;;;;;;;1.23;0.20;;;;;;;;;;4376919;32;20359;-88
2022/02/04 17:49:30;;;;;;;0.30;0.20;;;;;;;;;;4376762;32;20027;-88
2022/02/04 17:52:16;;;;;;;0.40;0.20;;;;;;;;;;4367906;32;20043;-90
2022/02/04 17:55:32;;;;;;;1.02;0.20;;;;;;;;;;4379185;32;20066;-91
2022/02/04 17:57:50;;;;;;;0.13;0.10;;;;;;;;;;4374430;32;20363;-90
2022/02/04 18:00:56;;;;;;;0.20;0.10;;;;;;;;;;4377883;32;20027;-90
2022/02/04 18:06:15;;;;;;;0.30;0.10;;;;;;;;;;4377322;32;20047;-88
2022/02/04 18:08:43;;;;;;;0.20;0.20;;;;;;;;;;4377118;32;20036;-88
2022/02/04 18:11:13;;;;;;;0.70;0.13;;;;;;;;;;4364347;32;20043;-89
2022/02/04 18:13:43;;;;;;;0.65;0.10;;;;;;;;;;4377118;32;20054;-90
2022/02/04 18:16:14;;;;;;;0.20;0.10;;;;;;;;;;4386909;32;20055;-91
2022/02/04 18:18:44;;;;;;;0.10;0.10;;;;;;;;;;4386923;32;20404;-90
2022/02/04 18:21:14;;;;;;;0.40;0.10;;;;;;;;;;4381314;32;20391;-90
2022/02/04 18:23:43;;;;;;;1.17;0.20;;;;;;;;;;4362532;32;20484;-89
2022/02/04 18:26:11;;;;;;;0.20;0.10;;;;;;;;;;4377458;32;20081;-90
2022/02/04 18:28:41;;;;;;;0.10;0.10;;;;;;;;;;4376944;32;20065;-89
2022/02/04 18:31:10;;;;;;;0.57;0.10;;;;;;;;;;4377522;32;20098;-90
2022/02/04 18:33:39;;;;;;;0.30;0.20;;;;;;;;;;4352449;32;20420;-89
2022/02/04 18:36:08;;;;;;;0.40;0.17;;;;;;;;;;4375515;32;20106;-90
2022/02/04 18:38:47;;;;;;;0.55;0.20;;;;;;;;;;4377081;32;20111;-89
2022/02/04 18:41:47;;;;;;;1.12;0.20;;;;;;;;;;4379514;32;20035;-90
2022/02/04 18:44:15;;;;;;;0.10;0.10;;;;;;;;;;4376842;32;20090;-93
2022/02/04 18:46:56;;;;;;;0.95;0.17;;;;;;;;;;4365216;32;20032;-90
2022/02/04 18:49:35;;;;;;;1.23;0.10;;;;;;;;;;4362013;32;20027;-91
2022/02/04 18:55:38;;;;;;;0.50;0.10;;;;;;;;;;4379354;32;20048;-91
2022/02/04 18:57:55;;;;;;;1.25;0.20;;;;;;;;;;4351496;32;20042;-91
2022/02/04 19:00:25;;;;;;;0.65;0.10;;;;;;;;;;4377280;32;20039;-90
2022/02/04 19:02:58;;;;;;;0.73;0.20;;;;;;;;;;4378127;32;20047;-89
2022/02/04 19:05:35;;;;;;;0.90;0.10;;;;;;;;;;4376339;32;20209;-90
2022/02/04 19:08:11;;;;;;;0.80;0.20;;;;;;;;;;4376044;32;20035;-90
2022/02/04 19:10:40;;;;;;;0.90;0.10;;;;;;;;;;4363320;32;20059;-90
2022/02/04 19:13:21;;;;;;;0.52;0.13;;;;;;;;;;4329864;32;20447;-91
2022/02/04 19:21:38;;;;;;;0.77;0.20;;;;;;;;;;4362583;32;20097;-91
2022/02/04 19:24:07;;;;;;;0.28;0.10;;;;;;;;;;4348579;33;20082;-90
2022/02/04 19:26:36;;;;;;;0.85;0.10;;;;;;;;;;4362053;32;20099;-91
2022/02/04 19:29:05;;;;;;;0.37;0.10;;;;;;;;;;4350091;32;20060;-90
2022/02/04 19:31:44;;;;;;;0.10;0.10;;;;;;;;;;4360693;32;20036;-90
2022/02/04 19:34:13;;;;;;;0.05;0.05;;;;;;;;;;4361224;32;20082;-90
2022/02/04 19:36:42;;;;;;;0.10;0.10;;;;;;;;;;4362468;32;20403;-90
2022/02/04 19:39:15;;;;;;;1.17;0.20;;;;;;;;;;4358061;32;20032;-90
2022/02/04 19:41:56;;;;;;;0.10;0.10;;;;;;;;;;4362380;32;20370;-90
2022/02/04 19:44:26;;;;;;;0.20;0.20;;;;;;;;;;4361959;33;20031;-89
2022/02/04 19:46:59;;;;;;;0.45;0.10;;;;;;;;;;4363995;32;20109;-90
2022/02/04 19:49:37;;;;;;;0.10;0.10;;;;;;;;;;4361474;32;20079;-89
2022/02/04 19:52:20;;;;;;;0.57;0.10;;;;;;;;;;4360944;33;20059;-90
2022/02/04 19:55:17;;;;;;;0.80;0.10;;;;;;;;;;4348082;33;20359;-90
2022/02/04 20:23:37;;;;;;;0.45;0.15;;;;;;;;;;4359371;32;20174;-90
2022/02/04 20:26:08;;;;;;;0.35;0.10;;;;;;;;;;4342262;33;20044;-90
2022/02/04 20:28:36;;;;;;;0.22;0.13;;;;;;;;;;4356463;32;20052;-90
2022/02/04 20:31:05;;;;;;;1.85;0.20;;;;;;;;;;4348762;33;20047;-90
2022/02/04 20:33:34;;;;;;;0.40;0.10;;;;;;;;;;4361563;33;20040;-90
2022/02/04 20:36:03;;;;;;;0.22;0.10;;;;;;;;;;4360828;33;20044;-90
2022/02/04 20:38:41;;;;;;;0.70;0.10;;;;;;;;;;4360786;33;20053;-91
2022/02/04 20:41:12;;;;;;;0.20;0.10;;;;;;;;;;4362260;33;20082;-91
2022/02/04 20:43:41;;;;;;;0.20;0.10;;;;;;;;;;4357693;33;20062;-91
2022/02/04 20:46:10;;;;;;;0.10;0.10;;;;;;;;;;4342539;33;20119;-90
2022/02/04 20:48:39;;;;;;;0.30;0.10;;;;;;;;;;4358714;32;20085;-91
2022/02/04 20:51:08;;;;;;;0.80;0.10;;;;;;;;;;4359583;32;20086;-91
2022/02/04 20:53:38;;;;;;;0.70;0.10;;;;;;;;;;4361841;33;20044;-91
2022/02/04 20:56:07;;;;;;;0.10;0.10;;;;;;;;;;4361034;32;20060;-90
2022/02/04 20:58:36;;;;;;;1.27;0.10;;;;;;;;;;4360496;33;20039;-89
2022/02/04 21:01:11;;;;;;;0.10;0.10;;;;;;;;;;4361288;32;20392;-90
2022/02/04 21:03:41;;;;;;;0.50;0.13;;;;;;;;;;4363034;32;20123;-90
2022/02/04 21:06:25;;;;;;;0.10;0.10;;;;;;;;;;4359803;32;20106;-89
2022/02/04 21:14:43;;;;;;;0.22;0.17;;;;;;;;;;4375646;32;20054;-91
2022/02/04 21:17:19;;;;;;;1.33;0.10;;;;;;;;;;4361865;32;20047;-91
2022/02/04 21:19:49;;;;;;;0.00;0.00;;;;;;;;;;4356487;32;20078;-88
2022/02/04 21:22:18;;;;;;;0.10;0.10;;;;;;;;;;4347601;32;20403;-88
2022/02/04 21:24:46;;;;;;;0.30;0.10;;;;;;;;;;4337658;32;20094;-87
2022/02/04 21:27:15;;;;;;;0.70;0.17;;;;;;;;;;4362923;32;20106;-88
2022/02/04 21:29:45;;;;;;;0.75;0.20;;;;;;;;;;4350403;33;20052;-87
2022/02/04 21:32:14;;;;;;;0.80;0.10;;;;;;;;;;4337542;33;20131;-88
2022/02/04 21:37:30;;;;;;;0.45;0.10;;;;;;;;;;4363553;32;20416;-90
2022/02/04 21:39:59;;;;;;;1.23;0.10;;;;;;;;;;4363281;33;20108;-91
2022/02/04 21:42:29;;;;;;;0.10;0.10;;;;;;;;;;4363097;33;20070;-90
2022/02/04 21:45:03;;;;;;;0.43;0.15;;;;;;;;;;4363653;32;20079;-91
2022/02/04 21:47:36;;;;;;;1.12;0.10;;;;;;;;;;4349667;33;20090;-90